Time;durP1;ratioP1;P1;durP2;ratioP2;P2;SDS_P1;SDS_P2;PMS_P1;PMS_P2;Temp;Humidity;BMP_temperature;BMP_pressure;BME280_temperature;BME280_humidity;BME280_pressure;Samples;Min_cycle;Max_cycle;Signal;HPM_P1;HPM_P2
2021/05/19 00:00:46;;;;;;;4.72;3.20;;;11.20;95.10;;;;;;5027767;28;20033;-84
2021/05/19 00:03:12;;;;;;;4.57;3.40;;;11.10;95.40;;;;;;5039169;28;20028;-83
2021/05/19 00:05:39;;;;;;;4.63;3.42;;;11.10;95.60;;;;;;5029034;28;20049;-83
2021/05/19 00:08:06;;;;;;;5.15;3.17;;;11.10;95.60;;;;;;5065693;28;20028;-83
2021/05/19 00:10:31;;;;;;;5.32;3.30;;;11.10;95.60;;;;;;5060354;28;20477;-83
2021/05/19 00:12:57;;;;;;;4.25;3.30;;;11.10;95.60;;;;;;5042301;28;20081;-83
2021/05/19 00:15:22;;;;;;;6.20;3.50;;;11.10;95.60;;;;;;5036078;28;20462;-84
2021/05/19 00:17:48;;;;;;;5.00;3.30;;;11.00;95.60;;;;;;5019468;28;20462;-84
2021/05/19 00:20:16;;;;;;;4.80;3.17;;;11.00;95.80;;;;;;5024992;28;20031;-83
2021/05/19 00:22:41;;;;;;;5.88;3.58;;;11.00;95.70;;;;;;5083034;28;20020;-83
2021/05/19 00:25:09;;;;;;;12.85;4.57;;;11.00;95.20;;;;;;5044773;28;20047;-83
2021/05/19 00:27:34;;;;;;;5.13;3.88;;;10.90;95.30;;;;;;5055780;28;20028;-84
2021/05/19 00:30:01;;;;;;;6.72;4.40;;;10.90;95.20;;;;;;5038738;28;20032;-83
2021/05/19 00:32:27;;;;;;;5.57;4.28;;;10.90;95.30;;;;;;5055353;28;20069;-84
2021/05/19 00:34:53;;;;;;;6.25;4.55;;;10.80;95.40;;;;;;5055148;28;20104;-83
2021/05/19 00:37:19;;;;;;;5.53;3.78;;;10.80;95.30;;;;;;5040717;28;20032;-83
2021/05/19 00:39:45;;;;;;;6.15;3.72;;;10.80;95.40;;;;;;5047785;28;20131;-83
2021/05/19 00:42:12;;;;;;;6.60;3.50;;;10.70;95.50;;;;;;5024098;28;20032;-83
2021/05/19 00:44:38;;;;;;;6.63;4.05;;;10.70;95.50;;;;;;5049218;28;20033;-83
2021/05/19 00:47:04;;;;;;;5.03;3.88;;;10.60;95.70;;;;;;5066441;28;20028;-82
2021/05/19 00:49:31;;;;;;;5.22;3.60;;;10.60;95.80;;;;;;5044809;28;20024;-83
2021/05/19 00:51:56;;;;;;;5.97;3.55;;;10.60;95.70;;;;;;5054784;28;20013;-83
2021/05/19 00:54:22;;;;;;;5.97;4.22;;;10.60;95.80;;;;;;5059242;28;20035;-83
2021/05/19 00:56:48;;;;;;;5.43;3.72;;;10.60;95.70;;;;;;5028881;28;20401;-83
2021/05/19 00:59:14;;;;;;;8.50;4.47;;;10.60;96.00;;;;;;5037952;28;20111;-83
2021/05/19 01:01:40;;;;;;;5.72;4.18;;;10.50;96.20;;;;;;5054370;28;20609;-83
2021/05/19 01:04:06;;;;;;;6.35;4.22;;;10.60;96.30;;;;;;5054509;28;20025;-84
2021/05/19 01:06:45;;;;;;;7.15;4.80;;;10.60;96.40;;;;;;5057843;28;20455;-83
2021/05/19 01:11:59;;;;;;;5.72;4.07;;;10.60;96.50;;;;;;5092814;28;20066;-83
2021/05/19 01:14:25;;;;;;;6.57;4.47;;;10.60;96.60;;;;;;5057468;28;20497;-82
2021/05/19 01:16:51;;;;;;;6.20;4.60;;;10.60;96.70;;;;;;5043433;28;20021;-83
2021/05/19 01:19:19;;;;;;;7.47;5.43;;;10.60;96.80;;;;;;5041297;28;20024;-83
2021/05/19 01:21:48;;;;;;;9.25;5.72;;;10.60;96.90;;;;;;5057583;28;20032;-83
2021/05/19 01:24:14;;;;;;;9.10;5.50;;;10.60;97.00;;;;;;5065102;28;20021;-83
2021/05/19 01:26:39;;;;;;;8.95;5.72;;;10.60;97.10;;;;;;5035783;28;20043;-83
2021/05/19 01:29:06;;;;;;;9.65;5.80;;;10.70;97.10;;;;;;5047223;28;20068;-83
2021/05/19 01:31:32;;;;;;;7.95;5.90;;;10.70;97.20;;;;;;5047266;28;20078;-83
2021/05/19 01:33:58;;;;;;;8.23;6.13;;;10.70;97.20;;;;;;5055155;28;20454;-83
2021/05/19 01:36:24;;;;;;;8.18;5.78;;;10.70;97.20;;;;;;5061277;28;20043;-83
2021/05/19 01:38:49;;;;;;;8.07;6.30;;;10.70;97.10;;;;;;5070542;28;20568;-83
2021/05/19 01:41:15;;;;;;;8.30;6.10;;;10.70;97.00;;;;;;5040669;28;20032;-82
2021/05/19 01:43:41;;;;;;;7.60;5.60;;;10.70;96.80;;;;;;5059778;28;20395;-82
2021/05/19 01:46:07;;;;;;;8.55;6.00;;;10.70;96.70;;;;;;5073940;28;20025;-83
2021/05/19 01:48:34;;;;;;;9.40;6.47;;;10.70;96.80;;;;;;5044667;28;20600;-83
2021/05/19 01:51:02;;;;;;;7.90;5.90;;;10.60;96.80;;;;;;5068058;28;20072;-82
2021/05/19 01:53:28;;;;;;;8.25;5.80;;;10.60;96.80;;;;;;5064938;28;20412;-83
2021/05/19 01:55:55;;;;;;;8.30;6.35;;;10.60;96.70;;;;;;5092036;28;20020;-83
2021/05/19 01:58:20;;;;;;;9.20;6.15;;;10.60;96.60;;;;;;5057381;28;20078;-83
2021/05/19 02:00:47;;;;;;;9.27;6.22;;;10.50;96.60;;;;;;5057323;28;20036;-83
2021/05/19 02:03:13;;;;;;;8.23;6.65;;;10.50;96.70;;;;;;5073884;28;20020;-83
2021/05/19 02:05:39;;;;;;;10.88;6.78;;;10.50;96.80;;;;;;5057168;28;20044;-83
2021/05/19 02:08:08;;;;;;;8.50;6.78;;;10.50;96.90;;;;;;5061713;28;20450;-83
2021/05/19 02:10:35;;;;;;;8.02;6.40;;;10.50;96.80;;;;;;5077423;28;20056;-83
2021/05/19 02:13:03;;;;;;;8.98;6.90;;;10.50;96.80;;;;;;5030059;28;20024;-82
2021/05/19 02:15:29;;;;;;;10.38;7.72;;;10.40;96.70;;;;;;5077295;28;20020;-83
2021/05/19 02:17:55;;;;;;;9.40;7.40;;;10.40;96.90;;;;;;5044796;28;20123;-82
2021/05/19 02:20:22;;;;;;;9.43;7.43;;;10.40;96.90;;;;;;5057307;28;20386;-83
2021/05/19 02:22:49;;;;;;;11.30;8.45;;;10.40;97.00;;;;;;5071003;28;20127;-83
2021/05/19 02:25:15;;;;;;;11.38;8.32;;;10.40;97.10;;;;;;5034695;28;20111;-83
2021/05/19 02:27:43;;;;;;;11.98;8.75;;;10.40;97.00;;;;;;5032613;28;20055;-83
2021/05/19 02:30:09;;;;;;;10.20;7.90;;;10.40;97.00;;;;;;5070993;28;20028;-83
2021/05/19 02:32:36;;;;;;;10.88;8.30;;;10.30;96.90;;;;;;5067554;28;20054;-83
2021/05/19 02:35:03;;;;;;;9.77;7.65;;;10.30;96.90;;;;;;5062782;28;20068;-83
2021/05/19 02:37:28;;;;;;;9.98;7.88;;;10.30;96.90;;;;;;5048261;28;20029;-82
2021/05/19 02:39:54;;;;;;;10.55;8.23;;;10.30;96.90;;;;;;5056603;28;20534;-83
2021/05/19 02:42:20;;;;;;;12.38;8.00;;;10.30;97.00;;;;;;5045808;28;20036;-83
2021/05/19 02:44:45;;;;;;;10.65;7.80;;;10.30;97.00;;;;;;5076921;28;20062;-82
2021/05/19 02:47:11;;;;;;;11.10;8.63;;;10.30;97.20;;;;;;5076570;28;20484;-83
2021/05/19 02:49:37;;;;;;;10.65;8.30;;;10.30;97.00;;;;;;5050428;28;20036;-84
2021/05/19 02:52:02;;;;;;;12.68;8.65;;;10.20;97.10;;;;;;5039174;28;20020;-83
2021/05/19 02:54:28;;;;;;;10.52;8.45;;;10.30;97.10;;;;;;5052492;28;20474;-84
2021/05/19 02:56:54;;;;;;;10.85;8.32;;;10.20;97.00;;;;;;5070079;28;20505;-84
2021/05/19 02:59:20;;;;;;;11.55;9.23;;;10.20;97.00;;;;;;5040301;28;20175;-84
2021/05/19 03:01:47;;;;;;;11.38;8.30;;;10.20;96.90;;;;;;5056566;28;20031;-83
2021/05/19 03:04:13;;;;;;;9.45;7.45;;;10.20;97.10;;;;;;5050388;28;20029;-83
2021/05/19 03:06:38;;;;;;;10.32;7.93;;;10.20;97.10;;;;;;5073733;28;20119;-83
2021/05/19 03:09:05;;;;;;;9.57;8.45;;;10.20;97.10;;;;;;5045603;28;20163;-83
2021/05/19 03:11:31;;;;;;;11.50;8.13;;;10.10;97.10;;;;;;5059640;28;20450;-82
2021/05/19 03:13:57;;;;;;;10.35;8.23;;;10.10;97.10;;;;;;5062210;28;20044;-83
2021/05/19 03:16:23;;;;;;;8.80;7.75;;;10.10;97.10;;;;;;5042855;28;20063;-83
2021/05/19 03:18:48;;;;;;;10.20;7.93;;;10.10;97.20;;;;;;5063262;28;20454;-83
2021/05/19 03:21:15;;;;;;;10.13;8.02;;;10.00;97.20;;;;;;5026965;28;20021;-83
2021/05/19 03:23:40;;;;;;;10.77;8.30;;;10.00;97.30;;;;;;5076146;28;20016;-83
2021/05/19 03:26:07;;;;;;;10.40;8.02;;;10.00;97.30;;;;;;5028969;28;20039;-83
2021/05/19 03:28:34;;;;;;;10.10;8.27;;;10.00;97.30;;;;;;5066565;28;20024;-83
2021/05/19 03:30:59;;;;;;;9.95;8.00;;;10.00;97.40;;;;;;5056802;28;20059;-82
2021/05/19 03:33:25;;;;;;;9.82;8.13;;;10.00;97.30;;;;;;5065959;28;20464;-83
2021/05/19 03:35:51;;;;;;;10.48;8.60;;;9.90;97.20;;;;;;5079297;28;20024;-83
2021/05/19 03:38:17;;;;;;;9.98;8.32;;;9.90;97.20;;;;;;5051212;28;20024;-83
2021/05/19 03:40:44;;;;;;;10.35;8.23;;;9.90;97.30;;;;;;5081138;28;20035;-83
2021/05/19 03:43:10;;;;;;;10.30;7.75;;;9.90;97.40;;;;;;5062022;28;20439;-83
2021/05/19 03:45:36;;;;;;;9.52;8.00;;;9.90;97.30;;;;;;5078849;28;20026;-83
2021/05/19 03:48:03;;;;;;;12.80;9.55;;;9.90;97.40;;;;;;5062509;28;20449;-83
2021/05/19 03:50:29;;;;;;;10.10;8.00;;;9.80;97.60;;;;;;5059060;28;20024;-83
2021/05/19 03:52:59;;;;;;;11.07;7.90;;;9.90;97.50;;;;;;5051181;28;20020;-83
2021/05/19 03:55:25;;;;;;;10.25;8.02;;;9.80;97.50;;;;;;5044772;28;20040;-83
2021/05/19 03:57:51;;;;;;;10.00;8.32;;;9.80;97.50;;;;;;5058699;28;20028;-83
2021/05/19 04:00:28;;;;;;;11.63;8.75;;;9.80;97.50;;;;;;5056492;28;20465;-83
2021/05/19 04:02:54;;;;;;;11.73;7.75;;;9.80;97.50;;;;;;5080367;28;20017;-83
2021/05/19 04:05:20;;;;;;;9.43;7.95;;;9.70;97.40;;;;;;5056167;23;20059;-85
2021/05/19 04:11:09;;;;;;;9.23;7.80;;;9.60;97.50;;;;;;5090213;28;20066;-85
2021/05/19 04:13:35;;;;;;;11.63;8.75;;;9.70;97.70;;;;;;5074647;28;20024;-85
2021/05/19 04:16:01;;;;;;;9.65;7.60;;;9.60;97.80;;;;;;5054772;28;20078;-85
2021/05/19 04:18:26;;;;;;;9.15;7.28;;;9.70;97.80;;;;;;5055080;28;20428;-85
2021/05/19 04:20:53;;;;;;;8.18;7.25;;;9.70;97.80;;;;;;5062920;28;20370;-85
2021/05/19 04:23:21;;;;;;;9.32;6.97;;;9.60;97.90;;;;;;5074980;28;20110;-85
2021/05/19 04:25:47;;;;;;;9.15;7.07;;;9.70;97.90;;;;;;5038874;28;20463;-85
2021/05/19 04:28:13;;;;;;;8.32;6.88;;;9.70;98.30;;;;;;5038169;28;20071;-85
2021/05/19 04:30:39;;;;;;;9.35;7.85;;;9.70;98.10;;;;;;5076379;28;20028;-86
2021/05/19 04:33:05;;;;;;;9.10;8.07;;;9.70;98.10;;;;;;5055228;28;20029;-86
2021/05/19 04:35:32;;;;;;;9.77;8.05;;;9.70;98.10;;;;;;5040750;28;20032;-85
2021/05/19 04:37:59;;;;;;;9.45;7.95;;;9.70;98.10;;;;;;5063144;28;20095;-85
2021/05/19 04:40:24;;;;;;;9.63;8.10;;;9.70;98.20;;;;;;5078271;28;20024;-85
2021/05/19 04:42:50;;;;;;;10.25;8.52;;;9.80;98.20;;;;;;5054743;28;20016;-85
2021/05/19 04:45:17;;;;;;;10.10;7.88;;;9.80;98.20;;;;;;5066615;28;20416;-86
2021/05/19 04:47:42;;;;;;;10.25;8.18;;;9.80;98.30;;;;;;5044056;28;20031;-85
2021/05/19 04:50:09;;;;;;;10.80;8.55;;;9.80;98.30;;;;;;5065052;28;20435;-86
2021/05/19 04:52:35;;;;;;;10.77;8.18;;;9.80;98.20;;;;;;5068786;28;20580;-85
2021/05/19 04:55:04;;;;;;;9.95;8.48;;;9.90;98.40;;;;;;5054633;28;20062;-85
2021/05/19 04:57:30;;;;;;;11.52;9.07;;;9.80;98.30;;;;;;5068774;28;20017;-85
2021/05/19 04:59:56;;;;;;;11.40;9.23;;;9.80;98.30;;;;;;5061636;28;20027;-86
2021/05/19 05:02:22;;;;;;;11.90;8.80;;;9.80;98.40;;;;;;5058063;28;20051;-85
2021/05/19 05:04:47;;;;;;;12.57;8.88;;;9.90;98.50;;;;;;5038989;28;20080;-85
2021/05/19 05:07:13;;;;;;;9.80;8.52;;;9.90;98.40;;;;;;5054507;28;20032;-85
2021/05/19 05:09:39;;;;;;;12.45;8.40;;;9.90;98.80;;;;;;5068547;28;20469;-85
2021/05/19 05:12:05;;;;;;;11.27;8.00;;;9.90;98.50;;;;;;5034583;28;20093;-85
2021/05/19 05:14:30;;;;;;;11.05;9.15;;;9.90;98.50;;;;;;5049118;28;20024;-85
2021/05/19 05:16:56;;;;;;;10.75;9.27;;;10.00;98.60;;;;;;5061309;28;20024;-85
2021/05/19 05:19:22;;;;;;;11.10;8.55;;;10.00;98.50;;;;;;5041351;28;20032;-85
2021/05/19 05:21:47;;;;;;;11.73;9.70;;;10.00;98.50;;;;;;5037105;28;20028;-85
2021/05/19 05:24:13;;;;;;;11.75;8.68;;;10.00;98.60;;;;;;5027522;28;20032;-85
2021/05/19 05:26:39;;;;;;;10.73;9.50;;;10.00;98.70;;;;;;5061641;28;20107;-85
2021/05/19 05:29:04;;;;;;;11.45;8.88;;;10.00;98.70;;;;;;5051385;28;20107;-85
2021/05/19 05:31:30;;;;;;;10.00;8.80;;;10.00;98.70;;;;;;5051269;28;20056;-86
2021/05/19 05:33:56;;;;;;;14.70;10.63;;;10.10;98.80;;;;;;5054878;28;20032;-86
2021/05/19 05:36:21;;;;;;;11.65;9.40;;;10.10;98.80;;;;;;5039231;28;20021;-85
2021/05/19 05:38:47;;;;;;;13.88;10.10;;;10.10;98.80;;;;;;5052912;28;20025;-86
2021/05/19 05:41:13;;;;;;;12.73;10.13;;;10.10;99.10;;;;;;5037282;28;20055;-86
2021/05/19 05:43:39;;;;;;;11.57;9.63;;;10.20;99.20;;;;;;5071799;28;20492;-84
2021/05/19 05:46:04;;;;;;;13.95;9.65;;;10.20;98.90;;;;;;5057839;28;20036;-85
2021/05/19 05:48:30;;;;;;;12.48;9.70;;;10.20;99.00;;;;;;5054680;28;20021;-86
2021/05/19 05:50:58;;;;;;;13.10;11.02;;;10.30;99.00;;;;;;5052128;28;20031;-86
2021/05/19 05:53:24;;;;;;;15.95;10.57;;;10.30;99.10;;;;;;5039589;28;20042;-85
2021/05/19 05:55:49;;;;;;;17.77;11.27;;;10.30;99.00;;;;;;5065329;28;20517;-86
2021/05/19 05:58:15;;;;;;;15.13;11.70;;;10.30;99.10;;;;;;5021870;28;20029;-86
2021/05/19 06:00:41;;;;;;;13.68;10.23;;;10.40;99.10;;;;;;5054224;28;20145;-85
2021/05/19 06:03:07;;;;;;;14.70;9.73;;;10.40;99.10;;;;;;5067691;28;20593;-86
2021/05/19 06:05:34;;;;;;;14.10;10.57;;;10.40;99.10;;;;;;5064456;28;20119;-86
2021/05/19 06:08:02;;;;;;;14.18;9.75;;;10.40;99.10;;;;;;5078798;28;20031;-86
2021/05/19 06:10:28;;;;;;;13.77;10.30;;;10.50;99.20;;;;;;5055442;28;20041;-86
2021/05/19 06:12:54;;;;;;;18.33;11.63;;;10.50;99.10;;;;;;5039931;28;20025;-86
2021/05/19 06:15:19;;;;;;;19.75;11.45;;;10.50;99.20;;;;;;5051941;28;20036;-86
2021/05/19 06:17:45;;;;;;;17.50;11.90;;;10.50;99.20;;;;;;5088704;28;20032;-86
2021/05/19 06:20:11;;;;;;;15.77;11.73;;;10.50;99.20;;;;;;5038574;28;20036;-86
2021/05/19 06:22:37;;;;;;;15.93;12.02;;;10.60;99.30;;;;;;5067802;28;20036;-86
2021/05/19 06:25:03;;;;;;;17.08;11.88;;;10.60;99.40;;;;;;5044099;28;20066;-86
2021/05/19 06:27:29;;;;;;;17.27;12.13;;;10.70;99.40;;;;;;5037526;28;20108;-86
2021/05/19 06:29:55;;;;;;;15.85;12.07;;;10.70;99.50;;;;;;5052208;28;20058;-86
2021/05/19 06:32:20;;;;;;;17.23;12.38;;;10.80;99.50;;;;;;5037566;28;20025;-86
2021/05/19 06:34:46;;;;;;;19.35;14.48;;;11.00;99.60;;;;;;5075136;28;20033;-86
2021/05/19 06:37:12;;;;;;;20.48;13.18;;;11.00;99.40;;;;;;5056857;28;20028;-86
2021/05/19 06:39:37;;;;;;;18.20;13.02;;;11.00;99.40;;;;;;5057053;28;20031;-86
2021/05/19 06:42:03;;;;;;;21.85;13.70;;;11.10;99.40;;;;;;5070844;28;20438;-86
2021/05/19 06:44:29;;;;;;;18.58;12.32;;;11.10;99.40;;;;;;5065522;28;20035;-86
2021/05/19 06:46:55;;;;;;;19.48;14.02;;;11.20;99.40;;;;;;5080567;28;20103;-86
2021/05/19 06:49:21;;;;;;;24.70;15.60;;;11.20;99.40;;;;;;5056705;28;20115;-86
2021/05/19 06:51:47;;;;;;;21.52;14.85;;;11.30;99.40;;;;;;5087428;28;20553;-86
2021/05/19 06:54:13;;;;;;;24.60;15.77;;;11.40;99.40;;;;;;5058201;28;20021;-86
2021/05/19 06:56:46;;;;;;;23.88;15.20;;;11.40;99.10;;;;;;5056737;28;20025;-86
2021/05/19 06:59:14;;;;;;;22.35;14.88;;;11.50;99.10;;;;;;5051695;28;20386;-86
2021/05/19 07:01:40;;;;;;;23.08;14.00;;;11.50;99.00;;;;;;5064453;28;20021;-86
2021/05/19 07:04:06;;;;;;;24.83;14.98;;;11.50;99.00;;;;;;5063037;28;20076;-85
2021/05/19 07:06:32;;;;;;;21.23;15.35;;;11.50;99.00;;;;;;5064659;28;20425;-86
2021/05/19 07:08:58;;;;;;;20.55;13.32;;;11.50;98.80;;;;;;5056302;28;20021;-86
2021/05/19 07:11:24;;;;;;;18.63;12.52;;;11.60;98.90;;;;;;5054710;28;20058;-86
2021/05/19 07:13:52;;;;;;;18.98;13.60;;;11.60;99.00;;;;;;5064453;28;20024;-86
2021/05/19 07:16:23;;;;;;;23.95;14.90;;;11.60;99.10;;;;;;5059246;28;20028;-86
2021/05/19 07:18:50;;;;;;;21.60;15.85;;;11.60;99.10;;;;;;5075979;28;20111;-86
2021/05/19 07:21:15;;;;;;;21.05;14.50;;;11.70;99.00;;;;;;5030263;28;20025;-85
2021/05/19 07:23:41;;;;;;;30.08;17.60;;;11.70;99.00;;;;;;5087035;28;20040;-86
2021/05/19 07:26:07;;;;;;;22.60;16.13;;;11.70;98.70;;;;;;5071895;28;20032;-86
2021/05/19 07:28:33;;;;;;;24.42;16.45;;;11.70;98.80;;;;;;5073380;28;20370;-85
2021/05/19 07:30:58;;;;;;;21.35;14.20;;;11.80;98.80;;;;;;5056290;28;20461;-86
2021/05/19 07:33:24;;;;;;;26.90;16.90;;;11.80;98.90;;;;;;5042398;28;20027;-86
2021/05/19 07:35:50;;;;;;;21.52;15.63;;;11.80;98.80;;;;;;5061505;28;20035;-86
2021/05/19 07:38:15;;;;;;;21.65;15.70;;;11.90;98.80;;;;;;5072640;28;20078;-85
2021/05/19 07:40:41;;;;;;;23.50;15.57;;;11.90;98.80;;;;;;5071379;28;20032;-86
2021/05/19 07:43:07;;;;;;;21.35;15.13;;;11.90;98.90;;;;;;5055422;28;20020;-87
2021/05/19 07:45:34;;;;;;;25.00;16.25;;;11.90;98.90;;;;;;5090598;28;20027;-84
2021/05/19 07:48:00;;;;;;;21.20;16.20;;;12.00;98.90;;;;;;5066261;28;20026;-86
2021/05/19 07:50:26;;;;;;;22.88;16.15;;;12.00;98.90;;;;;;5086431;28;20384;-86
2021/05/19 07:52:52;;;;;;;29.00;19.60;;;12.00;98.80;;;;;;5072299;28;20370;-85
2021/05/19 07:55:24;;;;;;;25.38;19.15;;;12.10;98.70;;;;;;5072142;28;20024;-86
2021/05/19 07:57:53;;;;;;;25.88;18.27;;;12.10;98.60;;;;;;5059733;28;20024;-85
2021/05/19 08:01:11;;;;;;;28.20;18.77;;;12.10;98.60;;;;;;5055434;28;20031;-85
2021/05/19 08:03:06;;;;;;;24.38;17.17;;;12.20;98.70;;;;;;5065834;28;20052;-85
2021/05/19 08:05:32;;;;;;;25.20;16.85;;;12.30;98.70;;;;;;5078836;28;20052;-86
2021/05/19 08:07:58;;;;;;;23.90;16.38;;;12.40;98.50;;;;;;5055216;28;20498;-84
2021/05/19 08:10:24;;;;;;;26.02;17.40;;;12.40;98.30;;;;;;5034965;28;20090;-86
2021/05/19 08:12:51;;;;;;;26.52;16.17;;;12.40;97.80;;;;;;5088826;28;20016;-86
2021/05/19 08:15:17;;;;;;;24.15;16.77;;;12.40;97.70;;;;;;5058864;28;20031;-86
2021/05/19 08:17:42;;;;;;;27.27;16.67;;;12.40;97.50;;;;;;5054952;28;20032;-86
2021/05/19 08:20:09;;;;;;;23.15;16.23;;;12.40;97.40;;;;;;5089853;28;20119;-86
2021/05/19 08:22:35;;;;;;;21.23;15.10;;;12.40;97.60;;;;;;5058522;28;20473;-85
2021/05/19 08:25:01;;;;;;;20.98;14.25;;;12.40;97.20;;;;;;5025670;28;20035;-86
2021/05/19 08:27:27;;;;;;;19.95;13.82;;;12.40;97.50;;;;;;5071735;28;20389;-86
2021/05/19 08:29:53;;;;;;;20.70;14.70;;;12.40;97.90;;;;;;5058068;28;20029;-85
2021/05/19 08:32:19;;;;;;;19.73;14.20;;;12.50;97.70;;;;;;5057361;28;20028;-86
2021/05/19 08:34:45;;;;;;;21.02;15.48;;;12.50;97.70;;;;;;5092909;28;20020;-85
2021/05/19 08:37:10;;;;;;;18.60;13.73;;;12.60;97.80;;;;;;5040012;28;20137;-85
2021/05/19 08:39:36;;;;;;;23.02;16.55;;;12.60;97.80;;;;;;5074624;28;20067;-85
2021/05/19 08:42:03;;;;;;;19.48;14.52;;;12.60;97.70;;;;;;5076215;28;20075;-86
2021/05/19 08:44:29;;;;;;;21.25;15.18;;;12.70;97.60;;;;;;5072585;28;20511;-86
2021/05/19 08:46:56;;;;;;;23.58;15.82;;;12.70;97.60;;;;;;5055264;28;20056;-85
2021/05/19 08:49:23;;;;;;;19.83;14.48;;;12.80;97.60;;;;;;5061106;28;20036;-86
2021/05/19 08:51:49;;;;;;;17.83;13.85;;;12.80;97.70;;;;;;5074763;28;20103;-86
2021/05/19 08:54:17;;;;;;;18.13;13.38;;;12.90;97.80;;;;;;5069679;28;20115;-86
2021/05/19 08:56:46;;;;;;;27.23;17.15;;;12.90;97.70;;;;;;5083771;28;20093;-85
2021/05/19 08:59:13;;;;;;;22.10;15.95;;;12.90;97.40;;;;;;5060069;28;20110;-86
2021/05/19 09:01:39;;;;;;;21.65;15.98;;;13.00;96.90;;;;;;5074740;28;20016;-86
2021/05/19 09:04:07;;;;;;;19.40;14.77;;;13.00;96.90;;;;;;5078351;28;20023;-85
2021/05/19 09:06:34;;;;;;;17.35;13.50;;;13.00;97.00;;;;;;5074257;28;20481;-85
2021/05/19 09:09:23;;;;;;;21.42;15.93;;;13.10;97.30;;;;;;5091952;28;20111;-85
2021/05/19 09:12:08;;;;;;;25.73;17.33;;;13.20;97.40;;;;;;5053895;28;20473;-85
2021/05/19 09:14:50;;;;;;;22.42;15.82;;;13.30;96.90;;;;;;5058262;28;20416;-85
2021/05/19 09:17:28;;;;;;;23.25;17.02;;;13.40;96.90;;;;;;5063176;28;20485;-83
2021/05/19 09:20:06;;;;;;;21.75;15.98;;;13.40;96.40;;;;;;5094083;28;20102;-85
2021/05/19 09:22:34;;;;;;;25.65;18.05;;;13.50;96.50;;;;;;5076173;28;20028;-85
2021/05/19 09:25:02;;;;;;;23.85;16.25;;;13.60;96.50;;;;;;5059819;28;20032;-85
2021/05/19 09:27:39;;;;;;;22.60;16.70;;;13.70;96.40;;;;;;5074681;28;20028;-85
2021/05/19 09:30:06;;;;;;;23.80;16.48;;;13.70;96.10;;;;;;5070420;28;20428;-86
2021/05/19 09:32:38;;;;;;;22.10;16.00;;;13.80;96.10;;;;;;5076552;28;20367;-85
2021/05/19 09:35:05;;;;;;;24.90;16.33;;;13.80;95.70;;;;;;5063308;28;20025;-85
2021/05/19 09:37:30;;;;;;;21.80;16.50;;;13.80;95.20;;;;;;5057886;28;20020;-85
2021/05/19 09:40:04;;;;;;;20.90;14.40;;;13.80;95.00;;;;;;5089338;28;20113;-85
2021/05/19 09:42:36;;;;;;;19.85;14.43;;;13.80;95.40;;;;;;5061924;28;20029;-85
2021/05/19 09:45:28;;;;;;;24.08;15.15;;;13.80;95.50;;;;;;5088971;28;20028;-85
2021/05/19 09:47:56;;;;;;;18.40;14.23;;;13.80;95.60;;;;;;5046334;28;20043;-84
2021/05/19 09:50:40;;;;;;;26.15;17.00;;;13.80;95.50;;;;;;5075600;28;20082;-86
2021/05/19 09:53:14;;;;;;;22.77;17.35;;;13.80;95.60;;;;;;5058007;28;20466;-87
2021/05/19 09:55:52;;;;;;;19.52;15.25;;;13.80;95.60;;;;;;5073964;28;20032;-86
2021/05/19 09:58:39;;;;;;;26.95;15.90;;;13.90;96.00;;;;;;5084601;28;20035;-86
2021/05/19 10:01:06;;;;;;;19.25;15.23;;;14.00;95.30;;;;;;5075438;28;20126;-86
2021/05/19 10:06:19;;;;;;;17.88;14.38;;;14.10;94.80;;;;;;5057057;28;20037;-87
2021/05/19 10:08:48;;;;;;;19.75;16.27;;;14.10;95.30;;;;;;5055578;28;20021;-88
2021/05/19 10:11:14;;;;;;;20.90;16.70;;;14.20;95.30;;;;;;5021627;28;20112;-84
2021/05/19 10:13:42;;;;;;;21.10;16.73;;;14.30;94.70;;;;;;5004878;28;20017;-85
2021/05/19 10:16:13;;;;;;;19.33;14.98;;;14.40;94.60;;;;;;5040148;28;20111;-85
2021/05/19 10:18:52;;;;;;;18.45;14.18;;;14.40;94.40;;;;;;5050264;28;20013;-86
2021/05/19 10:21:19;;;;;;;16.90;13.63;;;14.60;94.00;;;;;;5036869;28;20051;-85
2021/05/19 10:24:06;;;;;;;14.52;11.85;;;14.70;94.10;;;;;;5054966;28;20056;-85
2021/05/19 10:26:59;;;;;;;16.35;13.25;;;14.80;94.60;;;;;;5038593;28;20040;-84
2021/05/19 10:29:47;;;;;;;16.75;12.50;;;14.90;94.30;;;;;;5054597;28;21976;-84
2021/05/19 10:32:22;;;;;;;20.38;12.77;;;14.90;93.30;;;;;;5056171;28;20032;-85
2021/05/19 10:34:59;;;;;;;18.63;13.65;;;15.00;93.70;;;;;;5073567;28;20031;-85
2021/05/19 10:37:28;;;;;;;15.45;12.80;;;15.00;93.20;;;;;;5043252;28;20012;-84
2021/05/19 10:40:18;;;;;;;13.35;10.88;;;15.00;92.60;;;;;;5074991;28;20107;-85
2021/05/19 10:42:55;;;;;;;15.13;10.32;;;15.00;92.10;;;;;;5042610;28;20044;-84
2021/05/19 10:45:22;;;;;;;15.38;10.02;;;15.10;92.90;;;;;;5052454;28;20032;-84
2021/05/19 10:47:48;;;;;;;12.63;8.82;;;15.20;92.00;;;;;;5056688;28;20024;-83
2021/05/19 10:50:28;;;;;;;14.60;8.27;;;15.20;90.80;;;;;;5039995;28;20531;-83
2021/05/19 10:58:58;;;;;;;8.40;4.40;;;15.20;90.10;;;;;;5050835;28;20075;-84
2021/05/19 11:01:39;;;;;;;6.93;2.50;;;15.10;90.10;;;;;;5045206;28;20058;-83
2021/05/19 11:04:26;;;;;;;4.80;1.70;;;15.00;91.10;;;;;;5062352;28;20131;-83
2021/05/19 11:07:01;;;;;;;6.60;1.75;;;14.80;91.10;;;;;;5063917;28;20559;-84
2021/05/19 11:09:40;;;;;;;4.93;1.52;;;14.60;91.70;;;;;;5057584;28;20378;-83
2021/05/19 11:12:23;;;;;;;2.90;1.02;;;14.40;92.10;;;;;;5072312;28;20021;-83
2021/05/19 11:15:22;;;;;;;3.40;1.48;;;14.10;92.70;;;;;;5026653;28;20025;-83
2021/05/19 11:20:08;;;;;;;2.38;1.00;;;13.50;94.20;;;;;;5056319;28;20119;-84
2021/05/19 11:22:33;;;;;;;2.10;0.90;;;13.20;94.90;;;;;;5039741;28;20170;-84
2021/05/19 11:25:01;;;;;;;2.17;0.80;;;13.00;95.80;;;;;;5055774;28;20438;-84
2021/05/19 11:27:29;;;;;;;1.75;0.90;;;12.90;96.30;;;;;;5052485;28;20031;-84
2021/05/19 11:29:55;;;;;;;1.48;0.90;;;12.70;96.70;;;;;;5066264;28;20048;-84
2021/05/19 11:32:26;;;;;;;2.90;1.20;;;12.60;97.10;;;;;;5042300;28;20032;-85
2021/05/19 11:34:53;;;;;;;3.00;1.45;;;12.50;97.50;;;;;;5055818;28;20019;-84
2021/05/19 11:37:21;;;;;;;2.38;1.13;;;12.50;97.90;;;;;;5072328;28;20032;-84
2021/05/19 11:39:52;;;;;;;1.50;1.00;;;12.40;98.10;;;;;;5054742;28;20029;-85
2021/05/19 11:42:28;;;;;;;1.23;0.80;;;12.40;98.40;;;;;;5041406;28;20040;-84
2021/05/19 11:45:01;;;;;;;2.15;1.00;;;12.30;98.60;;;;;;5027595;28;20021;-84
2021/05/19 11:47:32;;;;;;;1.77;1.10;;;12.30;99.00;;;;;;5054556;28;20079;-84
2021/05/19 11:50:08;;;;;;;2.63;1.10;;;12.30;99.10;;;;;;5072415;28;20036;-84
2021/05/19 11:53:00;;;;;;;2.20;1.02;;;12.30;99.30;;;;;;5056569;28;20021;-85
2021/05/19 11:55:26;;;;;;;2.38;1.23;;;12.30;99.40;;;;;;5051691;28;20051;-84
2021/05/19 11:58:01;;;;;;;2.10;1.00;;;12.30;99.60;;;;;;5073852;28;20449;-85
2021/05/19 12:00:38;;;;;;;1.42;0.95;;;12.30;99.50;;;;;;5057444;28;20474;-85
2021/05/19 12:03:08;;;;;;;2.13;1.10;;;12.20;99.60;;;;;;5056784;28;20032;-86
2021/05/19 12:06:00;;;;;;;3.35;1.20;;;12.20;99.70;;;;;;5037993;28;20494;-86
2021/05/19 12:08:35;;;;;;;2.38;1.05;;;12.30;99.80;;;;;;5025494;28;20072;-85
2021/05/19 12:11:01;;;;;;;2.00;1.10;;;12.30;99.90;;;;;;5035279;28;20494;-84
2021/05/19 12:13:28;;;;;;;2.70;1.30;;;12.20;99.90;;;;;;5033613;28;20025;-87
2021/05/19 12:15:54;;;;;;;1.52;1.05;;;12.30;99.90;;;;;;5032486;28;20467;-86
2021/05/19 12:18:20;;;;;;;2.95;1.25;;;12.30;99.90;;;;;;5015939;28;20108;-86
2021/05/19 12:20:49;;;;;;;2.35;1.20;;;12.30;99.90;;;;;;5033787;28;20386;-85
2021/05/19 12:23:15;;;;;;;2.85;1.38;;;12.30;99.90;;;;;;5017359;28;20368;-85
2021/05/19 12:25:43;;;;;;;1.95;1.05;;;12.30;99.90;;;;;;5046255;28;20026;-85
2021/05/19 12:28:09;;;;;;;4.78;1.20;;;12.30;99.90;;;;;;5031913;28;20049;-85
2021/05/19 12:30:53;;;;;;;2.70;1.00;;;12.40;99.90;;;;;;5032002;28;20112;-85
2021/05/19 12:33:25;;;;;;;2.88;1.10;;;12.40;99.90;;;;;;5029940;28;20029;-85
2021/05/19 12:35:51;;;;;;;2.08;1.20;;;12.40;99.90;;;;;;5032255;28;20074;-85
2021/05/19 12:38:22;;;;;;;1.60;1.20;;;12.40;99.90;;;;;;5033298;28;20378;-85
2021/05/19 12:40:49;;;;;;;3.15;1.30;;;12.40;99.90;;;;;;5008536;28;20553;-85
2021/05/19 12:43:28;;;;;;;2.60;1.40;;;12.40;99.90;;;;;;5034033;28;20026;-85
2021/05/19 12:46:09;;;;;;;2.17;1.48;;;12.40;99.90;;;;;;5031892;28;20057;-87
2021/05/19 12:48:39;;;;;;;2.28;1.40;;;12.40;99.90;;;;;;5037385;28;20059;-87
2021/05/19 12:51:05;;;;;;;4.50;1.73;;;12.50;99.90;;;;;;5040772;28;20108;-86
2021/05/19 12:53:40;;;;;;;4.50;2.30;;;12.50;99.90;;;;;;5038347;28;20057;-87
2021/05/19 12:56:13;;;;;;;3.67;2.00;;;12.50;99.90;;;;;;5033007;28;20022;-86
2021/05/19 12:59:01;;;;;;;3.60;1.85;;;12.60;99.90;;;;;;5015624;28;20716;-86
2021/05/19 13:01:29;;;;;;;3.40;2.08;;;12.60;99.90;;;;;;5031341;28;20067;-86